SBFLSBCG

Guest
Details From SBFL - Hercillo Luz
To SBCG - Campo Grande
Flight Number -
Tags Generated
Created
Modified
Stats Distance 548 nm / 1,015 km
Max Altitude 0 ft / 0 m
Waypoints 3
Social Downloads 0
Likes 0
Share VATSIM

Download

Looking for another format? Having issues loading an existing format? Contact us
Advertisement - Login to hide

Notes

Generated

Route

SBFL IG SBCG

ID Type Via Altitude Latitude Longitude Leg Dist Tot Dist Heading (true) Name
O SBFL APT - 0 ft / 0 m -27.67664˚ -48.55458˚ - 0 nm - -
IG NDB - 0 ft / 0 m -20.48586˚ -54.68933˚ 547 nm 547 nm 321° / 323° SOJA NDB
O SBCG APT - 0 ft / 0 m -20.47754˚ -54.68069˚ 0 nm 547 nm 44° / 44° -

Altitude Profile

Advertisement - Login to hide

Weather


0- 5 10 15 20 25 30 35+ Temperature / ° C

Clouds and Precipitation
Forecast for 2018-05-25 00:00 UTC. Updated 4 hours ago

Ground ~20,000 ft ~40,000 ft Winds

SBFL

Details ICAO SBFL (FLN)
Name Hercillo Luz
Region Brazil
Timezone America/Sao_Paulo (UTC-3.0)
Stats Elevation 19 ft / 6 m (AMSL)
Location -27.670487° -48.547180°
Runways 2
Magnetic Variation 19.381° W

METAR

SBFL 250300Z 31002KT 9999 SCT040 15/14 Q1025

Decode

TAF

TAF SBFL 242100Z 2500/2524 28005KT 9999 FEW030 TN14/2507Z TX20/2518Z BECMG 2500/2502 20005KT BKN030 BECMG 2512/2514 05007KT SCT030 RMK PDJ

Decode

Departure Runways

ID Width Length Bearing (true) Bearing (mag) Surface Threshold Offset Overrun Length
03 148 ft / 45 m 4,939 ft / 1,505 m 11.55° 30.93° Concrete 0 ft / 0 m 0 ft / 0 m
14 148 ft / 45 m 7,543 ft / 2,299 m 121.30° 140.68° Asphalt 720 ft / 219 m 0 ft / 0 m
21 148 ft / 45 m 4,939 ft / 1,505 m 191.55° 210.93° Concrete 0 ft / 0 m 0 ft / 0 m
32 148 ft / 45 m 7,543 ft / 2,299 m 301.29° 320.67° Asphalt 0 ft / 0 m 200 ft / 61 m

SBCG

Details ICAO SBCG (CGR)
Name Campo Grande
Region Brazil
Timezone America/Campo_Grande (UTC-4.0)
Stats Elevation 1,833 ft / 559 m (AMSL)
Location -20.468666° -54.672500°
Runways 1
Magnetic Variation 17.603° W

METAR

SBCG 250300Z 14005KT CAVOK 18/13 Q1020

Decode

TAF

TAF SBCG 242100Z 2500/2524 11008KT CAVOK TN14/2509Z TX27/2518Z TEMPO 2514/2518 08008KT 9999 FEW030 RMK PDJ

Decode

Destination Runways

ID Width Length Bearing (true) Bearing (mag) Surface Threshold Offset Overrun Length
06 141 ft / 43 m 8,563 ft / 2,610 m 40.84° 58.44° Asphalt 0 ft / 0 m 192 ft / 59 m
24 141 ft / 43 m 8,563 ft / 2,610 m 220.83° 238.43° Asphalt 0 ft / 0 m 190 ft / 58 m

Approach Navaids

Runway Type Ident Frequency Range Bearing (true) Bearing (mag) Slope Elevation
06 Localiser ICG 110.30 MHz 18 nm / 33 km 41.62° 59.22° - 1,833 ft / 559 m (AMSL)
06 Glidescope ICG 110.30 MHz 10 nm / 19 km 40.84° 58.44° 3.00° 1,833 ft / 559 m (AMSL)

Popular Alternatives